EST,Max TemperatureF,Mean TemperatureF,Min TemperatureF,Max Dew PointF,MeanDew PointF,Min DewpointF,Max Humidity, Mean Humidity, Min Humidity, Max Sea Level PressureIn, Mean Sea Level PressureIn, Min Sea Level PressureIn, Max VisibilityMiles, Mean VisibilityMiles, Min VisibilityMiles, Max Wind SpeedMPH, Mean Wind SpeedMPH, Max Gust SpeedMPH,PrecipitationIn, CloudCover, Events, WindDirDegrees
2012-12-1,64,48,31,43,36,29,89,66,43,30.36,30.29,30.25,10,10,8,10,2,14,0.00,1,,187
2012-12-2,67,53,38,54,46,36,93,69,45,30.26,30.19,30.12,10,7,0,22,4,30,0.22,5,Fog-Rain,183
2012-12-3,70,61,51,54,52,50,100,79,57,30.25,30.19,30.15,10,9,4,12,2,15,0.13,5,Rain,194
2012-12-4,68,58,47,55,50,44,93,73,52,30.19,30.14,30.05,10,9,6,18,5,33,0.03,6,Rain,227
2012-12-5,53,45,36,44,38,30,93,73,52,30.32,30.27,30.20,10,9,6,12,3,16,0.10,5,Rain,285
2012-12-6,56,42,27,46,34,25,92,71,50,30.28,30.16,30.04,10,10,6,12,4,15,T,4,,113
2012-12-7,59,55,51,52,50,46,93,84,75,30.03,29.96,29.88,10,9,4,10,3,14,0.07,7,Rain,160
2012-12-8,63,59,54,55,52,48,93,80,67,30.00,29.93,29.88,10,8,4,16,6,22,0.31,8,Rain,221
2012-12-9,61,56,51,55,53,50,100,89,78,30.03,29.96,29.79,10,4,0,12,3,15,0.72,8,Fog-Rain-Thunderstorm,134
2012-12-10,63,51,38,54,47,34,93,79,65,29.88,29.73,29.60,10,6,2,23,8,33,0.80,8,Rain,240
2012-12-11,38,35,32,34,29,25,92,78,64,30.27,30.10,29.89,10,8,4,15,4,20,0.01,8,Rain-Snow,284
2012-12-12,42,35,27,32,27,25,92,73,53,30.44,30.37,30.27,10,6,0,8,1,10,0.00,2,Fog,62
2012-12-13,50,37,24,29,24,21,92,62,32,30.44,30.37,30.31,10,5,0,7,0,8,0.00,1,Fog,150
2012-12-14,56,40,24,33,26,22,92,61,30,30.38,30.30,30.21,10,10,10,8,1,10,0.00,0,,250
2012-12-15,58,45,32,43,32,28,85,59,33,30.21,30.07,29.90,10,10,8,10,1,12,0.06,4,Rain,154
2012-12-16,61,55,48,50,47,38,83,69,54,29.90,29.82,29.74,10,10,10,14,6,16,T,7,,183
2012-12-17,55,51,46,50,47,42,96,87,77,29.78,29.68,29.57,10,8,0,24,2,40,0.38,7,Fog-Rain,207
2012-12-18,49,42,35,43,38,32,89,81,73,29.91,29.78,29.60,10,8,2,15,7,24,0.21,6,Rain,250
2012-12-19,53,44,35,38,35,30,89,72,54,30.11,30.02,29.84,10,10,7,14,5,22,0.00,2,,268
2012-12-20,52,42,32,43,36,27,100,74,48,30.04,29.70,29.45,10,9,6,30,12,45,0.28,6,Rain,160
2012-12-21,39,34,28,28,23,21,85,72,59,29.98,29.71,29.58,10,4,1,31,17,45,0.08,8,Rain-Snow,249
2012-12-22,34,29,23,24,21,19,85,71,56,30.24,30.14,29.99,10,9,4,22,8,31,0.01,6,Snow,259
2012-12-23,51,35,18,27,23,15,92,65,38,30.14,30.03,29.95,10,10,10,17,4,23,0.00,0,,215
2012-12-24,48,38,28,45,35,25,100,89,78,29.97,29.87,29.78,10,8,2,10,2,13,0.16,7,Rain,240
2012-12-25,47,41,35,43,34,30,92,84,76,30.16,30.07,29.95,10,8,2,12,5,15,0.00,7,,357
2012-12-26,48,41,34,40,35,30,92,76,60,30.00,29.65,29.47,10,8,4,23,9,30,0.92,8,Rain-Snow-Thunderstorm,74
2012-12-27,34,32,29,28,24,23,85,79,72,30.19,30.05,29.76,10,8,4,25,8,33,0.01,8,Rain-Snow,272
2012-12-28,41,36,30,30,27,24,85,72,59,30.17,30.06,29.87,10,10,8,8,2,12,T,7,Snow,78
2012-12-29,39,35,30,34,30,26,96,88,79,30.11,29.83,29.68,10,6,2,22,10,29,0.32,8,Rain-Snow,260
2012-12-30,31,27,22,25,21,18,92,78,63,30.46,30.37,30.11,10,6,2,20,6,35,0.04,6,Snow,250
2012-12-31,38,29,20,27,22,17,92,72,52,30.41,30.25,30.10,10,9,6,9,1,13,T,5,Rain-Snow,197